Latest Weather Observations for Williamtown

IDN60801

Issued at 2:12 pm EDT Sunday 26 January 2020 (issued every 10 minutes, with the page automatically refreshed every 10 minutes)

About weather observations | Map of weather stations | Latest weather observations for NSW | Other Formats
Station Details ID: 061078 Name: WILLIAMTOWN RAAF Lat: -32.79 Lon: 151.84 Height: 7.5 m
Data from the previous 72 hours. | See also: Recent months at Williamtown
Date/Time
EDT
Temp
°C
App
Temp
°C
Dew
Point
°C
Rel
Hum
%
Delta-T
°C
Wind Press
QNH
hPa
Press
MSL
hPa
Rain since
9am
mm
Dir  Spd
km/h
Gust
km/h
Spd
kts
Gust
kts
26/02:00pm 35.4 35.2 19.3 38 10.7 WNW 19 28 10 15 1010.0 1009.9 0.0
26/01:30pm 35.5 35.0 18.6 37 11.1 WNW 19 32 10 17 1010.5 1010.4 0.0
26/01:00pm 34.8 34.9 19.2 39 10.3 NW 17 28 9 15 1010.9 1010.8 0.0
26/12:30pm 33.9 34.4 19.2 42 9.7 NW 15 24 8 13 1011.3 1011.2 0.0
26/12:00pm 33.7 33.7 19.7 43 9.3 WNW 19 33 10 18 1011.5 1011.4 0.0
26/11:30am 33.5 33.1 18.8 41 9.6 WNW 19 32 10 17 1011.6 1011.5 0.0
26/11:00am 31.6 32.0 19.9 50 7.7 NW 17 26 9 14 1012.1 1012.0 0.0
26/10:30am 31.8 32.5 21.6 54 6.9 WNW 20 32 11 17 1012.3 1012.2 0.0
26/10:00am 30.2 32.9 22.9 65 5.0 WNW 13 22 7 12 1012.7 1012.6 0.0
26/09:30am 28.7 33.0 24.3 77 3.1 NW 9 13 5 7 1012.8 1012.7 0.0
26/09:00am 27.1 31.0 23.6 81 2.4 NW 9 13 5 7 1012.9 1012.8 0.4
26/08:30am 25.9 29.7 23.4 86 1.7 WNW 9 13 5 7 1012.9 1012.8 0.4
26/08:00am 25.0 28.3 23.2 90 1.2 W 11 15 6 8 1012.7 1012.6 0.4
26/07:30am 24.3 27.9 23.1 93 0.8 NNW 9 11 5 6 1012.4 1012.3 0.4
26/07:00am 23.9 28.1 22.5 92 0.9 NW 4 11 2 6 1012.0 1011.9 0.4
26/06:30am 23.3 27.6 21.9 92 0.9 WNW 2 9 1 5 1011.5 1011.4 0.4
26/06:00am 23.5 26.6 22.1 92 0.9 NNW 9 11 5 6 1011.0 1010.9 0.4
26/05:30am 23.4 26.5 22.2 93 0.8 NW 9 11 5 6 1010.6 1010.5 0.4
26/05:00am 24.1 27.2 22.2 89 1.3 NE 9 13 5 7 1010.0 1009.9 0.4
26/04:30am 24.2 27.9 22.5 90 1.1 NNE 7 9 4 5 1010.0 1009.9 0.4
26/04:00am 24.1 27.5 22.7 92 0.9 ENE 9 13 5 7 1010.0 1009.9 0.4
26/03:30am 24.0 28.0 22.8 93 0.8 ENE 6 9 3 5 1010.0 1009.9 0.4
26/03:00am 23.7 28.0 22.7 94 0.7 ESE 4 7 2 4 1010.4 1010.3 0.4
26/02:30am 23.8 28.3 23.0 95 0.5 ESE 4 7 2 4 1010.9 1010.8 0.4
26/02:00am 23.8 26.6 23.0 95 0.5 SE 13 13 7 7 1010.9 1010.8 0.4
26/01:30am 24.0 28.5 23.0 94 0.7 SW 4 9 2 5 1011.2 1011.1 0.4
26/01:00am 24.0 28.0 22.8 93 0.8 WSW 6 7 3 4 1011.5 1011.4 0.4
26/12:30am 24.6 28.8 23.2 92 0.9 NNE 6 9 3 5 1011.6 1011.5 0.4
26/12:00am 24.5 27.2 22.9 91 1.1 ENE 13 15 7 8 1011.4 1011.3 0.4
 
Date/Time
EDT
Temp
°C
App
Temp
°C
Dew
Point
°C
Rel
Hum
%
Delta-T
°C
Wind Press
QNH
hPa
Press
MSL
hPa
Rain since
9am
mm
Dir  Spd
km/h
Gust
km/h
Spd
kts
Gust
kts
25/11:30pm 24.7 28.7 23.1 91 1.1 NE 7 11 4 6 1011.7 1011.6 0.4
25/11:00pm 24.7 28.6 22.9 90 1.2 ESE 7 9 4 5 1011.8 1011.7 0.4
25/10:30pm 24.7 28.3 23.1 91 1.1 SSE 9 11 5 6 1011.9 1011.8 0.4
25/10:00pm 24.9 27.7 23.7 93 0.8 SSE 15 19 8 10 1011.9 1011.8 0.4
25/09:30pm 24.9 28.5 23.7 93 0.8 SSE 11 15 6 8 1012.0 1011.9 0.4
25/09:00pm 25.4 29.4 23.8 91 1.1 SSE 9 11 5 6 1011.6 1011.5 0.4
25/08:30pm 25.8 30.2 23.8 89 1.4 S 7 9 4 5 1011.3 1011.2 0.4
25/08:00pm 26.4 30.9 23.9 86 1.7 SSW 7 9 4 5 1011.3 1011.2 0.4
25/07:30pm 26.8 30.3 23.5 82 2.3 SSE 11 15 6 8 1010.9 1010.8 0.4
25/07:00pm 27.5 30.4 23.1 77 3.0 ENE 13 17 7 9 1010.7 1010.6 0.4
25/06:30pm 27.8 30.5 23.4 77 3.0 ENE 15 19 8 10 1010.4 1010.3 0.4
25/06:00pm 28.5 30.3 23.2 73 3.6 ESE 19 28 10 15 1010.8 1010.7 0.4
25/05:30pm 28.2 29.9 23.1 74 3.5 E 19 26 10 14 1010.8 1010.7 0.4
25/05:00pm 28.0 29.4 22.9 74 3.5 ESE 20 30 11 16 1011.0 1010.9 0.4
25/04:30pm 27.9 29.2 22.6 73 3.6 SE 20 28 11 15 1011.2 1011.1 0.4
25/04:00pm 28.1 29.6 23.0 74 3.5 ESE 20 26 11 14 1011.2 1011.1 0.2
25/03:30pm 27.7 29.1 22.9 75 3.3 ESE 20 28 11 15 1011.3 1011.2 0.2
25/03:21pm 28.4 30.0 23.8 76 3.2 SE 22 28 12 15 1011.4 1011.3 0.2
25/03:00pm 27.9 29.0 23.7 78 2.9 ESE 24 32 13 17 1011.8 1011.7 0.2
25/02:54pm 27.8 28.7 23.4 77 3.0 SE 24 32 13 17 1011.9 1011.8 0.2
25/02:30pm 28.1 29.7 23.2 74 3.3 SE 20 30 11 16 1012.2 1012.1 0.2
25/02:17pm 28.3 30.2 23.7 76 3.2 SE 20 28 11 15 1012.4 1012.3 0.2
25/02:00pm 28.4 30.5 23.8 76 3.2 SE 19 28 10 15 1012.8 1012.7 0.2
25/01:44pm 27.2 29.2 23.0 78 2.9 SE 17 22 9 12 1013.1 1013.0 0.2
25/01:30pm 27.4 29.3 23.4 79 2.7 SE 19 26 10 14 1013.2 1013.1 0.2
25/01:17pm 27.1 29.6 23.1 79 2.7 ESE 15 19 8 10 1013.3 1013.2 0.2
25/01:00pm 26.8 29.1 23.5 82 2.3 SE 17 20 9 11 1013.5 1013.4 0.2
25/12:34pm 25.7 29.8 23.9 90 1.2 ESE 9 13 5 7 1013.8 1013.7 0.2
25/12:30pm 25.8 29.7 24.2 91 1.1 ESE 11 15 6 8 1013.8 1013.7 0.2
25/12:00pm 24.8 28.7 23.6 93 0.8 SE 9 13 5 7 1014.2 1014.1 0.2
25/11:30am 24.7 28.3 23.1 91 1.1 SE 9 11 5 6 1014.3 1014.2 0.2
25/11:06am 25.1 28.3 23.0 88 1.4 ESE 11 15 6 8 1014.3 1014.2 0.2
25/11:00am 25.3 28.5 23.0 87 1.6 ESE 11 15 6 8 1014.3 1014.2 0.2
25/10:30am 25.5 28.7 23.0 86 1.7 E 11 17 6 9 1014.3 1014.2 0.2
25/10:22am 25.3 28.1 23.0 87 1.6 ESE 13 17 7 9 1014.3 1014.2 0.2
25/10:00am 25.2 28.4 23.1 88 1.4 ESE 11 15 6 8 1014.3 1014.2 0.2
25/09:58am 25.3 28.6 23.2 88 1.4 ESE 11 15 6 8 1014.3 1014.2 0.2
25/09:45am 25.1 28.8 23.2 89 1.3 E 9 13 5 7 1014.3 1014.2 0.2
25/09:41am 25.0 28.6 23.1 89 1.3 E 9 11 5 6 1014.3 1014.2 0.2
25/09:30am 24.7 28.3 23.1 91 1.1 ESE 9 13 5 7 1014.2 1014.1 0.2
25/09:00am 24.0 27.7 23.3 96 0.5 SE 9 11 5 6 1014.2 1014.1 1.0
25/08:59am 24.1 27.9 23.4 96 0.5 SE 9 11 5 6 1014.2 1014.1 1.0
25/08:30am 23.4 26.4 22.7 96 0.5 SE 11 17 6 9 1014.1 1014.0 1.0
25/08:16am 23.6 26.7 22.9 96 0.5 SE 11 17 6 9 1014.0 1013.9 1.0
25/08:14am 23.6 26.3 22.9 96 0.5 SE 13 17 7 9 1014.0 1013.9 1.0
25/08:00am 23.5 26.6 22.8 96 0.5 SSE 11 19 6 10 1013.9 1013.8 0.8
25/07:30am 23.5 25.4 22.7 95 0.5 SE 17 20 9 11 1013.5 1013.4 0.2
25/07:00am 23.7 25.6 22.7 94 0.7 SE 17 20 9 11 1013.2 1013.1 0.0
25/06:37am 24.1 26.1 22.2 89 1.3 SE 15 17 8 9 1012.9 1012.8 0.0
25/06:33am 24.2 26.1 22.1 88 1.4 SE 15 19 8 10 1012.9 1012.8 0.0
25/06:30am 24.2 26.0 21.9 87 1.5 SE 15 19 8 10 1012.8 1012.7 0.0
25/06:00am 24.7 26.3 21.4 82 2.2 SE 15 20 8 11 1012.7 1012.6 0.0
25/05:30am 24.6 26.8 21.9 85 1.8 SE 13 17 7 9 1012.4 1012.3 0.0
25/05:00am 24.6 26.9 22.1 86 1.7 SSE 13 17 7 9 1012.3 1012.2 0.0
25/04:30am 24.6 27.0 22.3 87 1.5 SSE 13 17 7 9 1012.1 1012.0 0.0
25/04:00am 24.6 27.3 22.1 86 1.7 S 11 15 6 8 1012.1 1012.0 0.0
25/03:30am 24.6 27.2 21.9 85 1.8 SSE 11 13 6 7 1012.0 1011.9 0.0
25/03:00am 24.6 27.2 21.9 85 1.8 S 11 13 6 7 1012.0 1011.9 0.0
25/02:30am 24.7 27.6 21.8 84 1.9 SE 9 13 5 7 1011.9 1011.8 0.0
25/02:00am 24.8 26.9 21.7 83 2.1 SSE 13 17 7 9 1012.2 1012.1 0.0
25/01:30am 24.8 26.8 21.5 82 2.2 SSE 13 19 7 10 1012.4 1012.3 0.0
25/01:00am 24.7 26.3 21.4 82 2.2 SE 15 19 8 10 1012.9 1012.8 0.0
25/12:30am 24.8 26.8 21.5 82 2.2 SE 13 17 7 9 1013.1 1013.0 0.0
25/12:00am 24.8 26.9 21.7 83 2.1 SSE 13 15 7 8 1013.0 1012.9 0.0
 
Date/Time
EDT
Temp
°C
App
Temp
°C
Dew
Point
°C
Rel
Hum
%
Delta-T
°C
Wind Press
QNH
hPa
Press
MSL
hPa
Rain since
9am
mm
Dir  Spd
km/h
Gust
km/h
Spd
kts
Gust
kts
24/11:30pm 24.8 27.6 21.5 82 2.2 SSE 9 11 5 6 1013.1 1013.0 0.0
24/11:00pm 24.7 27.4 21.4 82 2.2 ESE 9 11 5 6 1012.7 1012.6 0.0
24/10:30pm 24.6 27.4 21.5 83 2.1 E 9 11 5 6 1012.6 1012.5 0.0
24/10:00pm 24.6 27.0 21.5 83 2.1 ESE 11 13 6 7 1012.5 1012.4 0.0
24/09:30pm 24.7 27.4 21.4 82 2.2 ESE 9 13 5 7 1012.3 1012.2 0.0
24/09:00pm 24.7 27.4 21.4 82 2.2 ESE 9 15 5 8 1011.7 1011.6 0.0
24/08:30pm 25.0 26.9 21.3 80 2.4 ESE 13 17 7 9 1011.2 1011.1 0.0
24/08:00pm 25.4 27.3 21.3 78 2.7 E 13 20 7 11 1010.8 1010.7 0.0
24/07:30pm 26.0 27.4 21.0 74 3.3 E 15 20 8 11 1010.4 1010.3 0.0
24/07:00pm 26.5 27.5 21.0 72 3.6 E 17 26 9 14 1010.5 1010.4 0.0
24/06:30pm 26.2 27.5 21.6 76 3.1 ESE 17 24 9 13 1009.4 1009.3 0.0
24/06:00pm 25.4 27.1 21.7 80 2.5 SE 15 20 8 11 1009.0 1008.9 0.0
24/05:30pm 25.1 26.6 21.2 79 2.6 S 15 19 8 10 1009.3 1009.2 0.0
24/05:00pm 26.0 26.3 20.8 73 3.4 SSE 20 28 11 15 1008.6 1008.5 0.0
24/04:30pm 26.8 27.4 20.2 67 4.3 SSE 17 28 9 15 1009.0 1008.9 0.0
24/04:00pm 25.6 26.7 20.4 73 3.4 SSE 15 22 8 12 1009.2 1009.1 0.0
24/03:30pm 25.8 26.3 20.8 74 3.3 SSE 19 28 10 15 1009.4 1009.3 0.0
24/03:00pm 26.9 25.2 19.8 65 4.6 S 28 35 15 19 1009.7 1009.6 0.0
24/02:30pm 27.8 26.0 20.4 64 4.9 S 30 35 16 19 1009.8 1009.7 0.0
24/02:00pm 27.7 27.0 21.0 67 4.4 S 26 35 14 19 1009.8 1009.7 0.0
24/01:30pm 27.9 25.6 20.2 63 5.0 SSE 32 41 17 22 1009.7 1009.6 0.0
24/01:00pm 27.2 26.6 20.5 67 4.4 SSE 24 35 13 19 1010.0 1009.9 0.0
24/12:30pm 27.1 25.4 18.9 61 5.3 S 26 37 14 20 1009.9 1009.8 0.0
24/12:00pm 27.9 26.2 20.5 64 4.9 S 30 39 16 21 1009.9 1009.8 0.0
24/11:30am 27.7 25.5 19.5 61 5.3 SSE 30 41 16 22 1009.9 1009.8 0.0
24/11:00am 28.3 26.4 20.1 61 5.4 S 30 41 16 22 1009.9 1009.8 0.0
24/10:30am 28.5 26.5 20.0 60 5.6 S 30 39 16 21 1009.6 1009.5 0.0
24/10:00am 27.6 25.6 20.7 66 4.6 SSE 32 41 17 22 1009.3 1009.2 0.0
24/09:30am 27.9 26.9 21.9 70 4.0 S 30 37 16 20 1008.8 1008.7 0.0
24/09:00am 27.7 27.3 22.4 73 3.6 S 28 37 15 20 1008.2 1008.2 0.0
24/08:30am 28.2 28.7 22.7 72 3.7 SSW 24 32 13 17 1007.7 1007.7 0.0
24/08:00am 28.8 27.7 21.1 63 5.1 SSW 28 33 15 18 1006.8 1006.8 0.0
24/07:30am 29.9 30.1 20.2 56 6.4 SW 19 28 10 15 1006.7 1006.7 0.0
24/07:00am 28.1 29.2 20.4 63 5.1 W 15 19 8 10 1006.2 1006.2 0.0
24/06:30am 26.8 29.0 21.1 71 3.8 SSW 11 15 6 8 1006.3 1006.3 0.0
24/06:00am 27.4 29.7 21.4 70 4.0 NW 11 17 6 9 1005.0 1005.0 0.0
24/05:30am 28.1 29.0 20.9 65 4.8 NNW 17 24 9 13 1004.8 1004.8 0.0
24/05:00am 27.8 30.5 21.3 67 4.3 N 9 15 5 8 1004.8 1004.8 0.0
24/04:30am 27.4 31.8 21.4 70 4.0 CALM 0 6 0 3 1004.0 1004.0 0.0
24/04:00am 27.4 30.6 21.7 71 3.8 WNW 7 13 4 7 1003.3 1003.3 0.0
24/03:30am 28.1 29.9 21.1 65 4.7 N 13 20 7 11 1003.1 1003.1 0.0
24/03:00am 28.3 29.3 21.1 65 4.8 NW 17 22 9 12 1003.1 1003.1 0.0
24/02:30am 28.1 28.8 21.6 68 4.3 NW 20 28 11 15 1003.3 1003.3 0.0
24/02:00am 28.3 30.3 21.6 67 4.5 N 13 19 7 10 1003.6 1003.6 0.0
24/01:30am 28.7 29.8 21.2 64 5.0 WNW 17 22 9 12 1003.4 1003.4 0.0
24/01:00am 28.7 30.4 21.0 63 5.1 NW 13 15 7 8 1003.4 1003.4 0.0
24/12:30am 29.1 30.5 21.1 62 5.3 WNW 15 19 8 10 1003.7 1003.7 0.0
24/12:00am 29.5 29.1 20.9 60 5.7 WNW 24 32 13 17 1003.8 1003.8 0.0
 
Date/Time
EDT
Temp
°C
App
Temp
°C
Dew
Point
°C
Rel
Hum
%
Delta-T
°C
Wind Press
QNH
hPa
Press
MSL
hPa
Rain since
9am
mm
Dir  Spd
km/h
Gust
km/h
Spd
kts
Gust
kts
23/11:30pm 30.5 28.3 20.4 54 6.7 W 32 41 17 22 1004.2 1004.2 0.0
23/11:00pm 31.3 29.1 20.3 52 7.3 W 32 41 17 22 1004.4 1004.4 0.0
23/10:48pm 32.1 30.4 19.7 48 8.2 W 28 44 15 24 1004.8 1004.8 0.0
23/10:30pm 32.3 32.9 19.5 46 8.4 N 15 20 8 11 1003.9 1003.9 0.0
23/10:00pm 32.5 33.2 19.7 46 8.5 N 15 22 8 12 1002.6 1002.6 0.0
23/09:30pm 32.3 32.9 20.2 48 8.0 NNE 17 26 9 14 1001.7 1001.7 0.0
23/09:00pm 32.7 32.9 20.2 47 8.3 NNE 19 32 10 17 1001.5 1001.5 0.0
23/08:30pm 33.1 32.7 18.8 42 9.3 NNE 19 30 10 16 1001.5 1001.5 0.0
23/08:00pm 34.6 33.1 16.4 33 11.6 NNE 19 32 10 17 1001.0 1001.0 0.0
23/07:30pm 35.8 34.2 16.0 30 12.5 N 19 30 10 16 1000.3 1000.3 0.0
23/07:00pm 37.5 36.4 16.4 28 13.6 NNE 17 26 9 14 999.3 999.3 0.0
23/06:30pm 36.5 36.1 19.4 36 11.4 NE 20 30 11 16 999.2 999.2 0.0
23/06:00pm 40.1 36.7 13.6 21 16.5 NNW 24 41 13 22 998.9 998.9 0.0
23/05:30pm 39.2 38.3 16.8 27 14.5 NNE 17 32 9 17 998.9 998.9 0.0
23/05:00pm 41.7 38.3 12.5 18 18.1 NW 22 35 12 19 998.7 998.7 0.0
23/04:30pm 41.9 37.4 12.7 18 18.0 NW 28 39 15 21 999.2 999.2 0.0
23/04:00pm 42.3 36.0 11.2 16 18.9 NW 35 46 19 25 999.6 999.6 0.0
23/03:30pm 42.7 36.5 11.5 16 19.0 WNW 35 50 19 27 999.9 999.9 0.0
23/03:04pm 41.9 36.5 12.7 18 18.0 NW 33 52 18 28 1000.4 1000.4 0.0
23/03:00pm 41.4 34.8 11.4 17 18.2 NW 37 52 20 28 1000.3 1000.3 0.0
23/02:47pm 41.3 35.9 12.2 18 17.8 NNW 32 50 17 27 1000.9 1000.9 0.0
23/02:30pm 40.6 36.1 12.5 19 17.2 NW 28 41 15 22 1001.1 1001.1 0.0

Other formats

Comma delimited format used in spreadsheet applications
http://www.bom.gov.au/fwo/IDN60801/IDN60801.94776.axf

JavaScript Object Notation format (JSON) in row-major order
http://www.bom.gov.au/fwo/IDN60801/IDN60801.94776.json

Data quality

Most of these data are generated automatically and are frequently updated. Quality checks on data are not normally performed. It is possible for incorrect values to appear. Refer to information at About Latest Weather Observations and please check the disclaimer before using these data.